createdAt,value
2018-04-23T00:00:08.504Z,9.50
2018-04-23T00:02:36.847Z,7.00
2018-04-23T00:05:04.966Z,6.73
2018-04-23T00:07:33.234Z,7.13
2018-04-23T00:10:01.343Z,7.73
2018-04-23T00:12:29.424Z,9.00
2018-04-23T00:14:57.671Z,8.10
2018-04-23T00:17:25.764Z,8.00
2018-04-23T00:19:53.943Z,8.93
2018-04-23T00:22:22.090Z,9.10
2018-04-23T00:24:50.192Z,7.90
2018-04-23T00:27:18.314Z,7.23
2018-04-23T00:29:46.435Z,10.57
2018-04-23T00:32:14.831Z,11.20
2018-04-23T00:34:43.346Z,10.73
2018-04-23T00:37:11.595Z,9.37
2018-04-23T00:39:39.804Z,10.90
2018-04-23T00:42:08.163Z,10.57
2018-04-23T00:44:36.458Z,8.77
2018-04-23T00:47:04.624Z,8.00
2018-04-23T00:49:32.924Z,9.57
2018-04-23T00:52:01.063Z,11.77
2018-04-23T00:54:29.179Z,7.67
2018-04-23T00:56:57.301Z,9.47
2018-04-23T00:59:25.507Z,11.23
2018-04-23T01:01:53.595Z,9.13
2018-04-23T01:04:21.932Z,10.63
2018-04-23T01:06:50.049Z,10.17
2018-04-23T01:09:18.207Z,12.57
2018-04-23T01:11:46.493Z,9.00
2018-04-23T01:14:15.213Z,9.30
2018-04-23T01:16:43.363Z,10.23
2018-04-23T01:19:11.686Z,10.40
2018-04-23T01:21:39.844Z,9.63
2018-04-23T01:24:08.076Z,10.73
2018-04-23T01:26:36.189Z,9.70
2018-04-23T01:29:04.586Z,9.77
2018-04-23T01:31:32.724Z,10.60
2018-04-23T01:34:00.991Z,10.53
2018-04-23T01:36:29.118Z,14.37
2018-04-23T01:38:57.669Z,9.10
2018-04-23T01:41:25.877Z,13.83
2018-04-23T01:43:53.974Z,11.10
2018-04-23T01:46:22.312Z,11.50
2018-04-23T01:48:50.600Z,11.03
2018-04-23T01:51:18.777Z,11.17
2018-04-23T01:53:46.924Z,15.40
2018-04-23T01:56:15.705Z,13.20
2018-04-23T01:58:44.058Z,15.43
2018-04-23T02:01:12.234Z,15.23
2018-04-23T02:03:40.526Z,14.37
2018-04-23T02:06:08.652Z,13.97
2018-04-23T02:08:36.781Z,16.60
2018-04-23T02:11:05.106Z,15.10
2018-04-23T02:13:33.488Z,15.10
2018-04-23T02:16:01.652Z,17.00
2018-04-23T02:18:29.776Z,16.50
2018-04-23T02:20:58.259Z,16.57
2018-04-23T02:23:26.467Z,17.63
2018-04-23T02:25:54.802Z,15.87
2018-04-23T02:28:23.132Z,20.93
2018-04-23T02:30:51.276Z,18.90
2018-04-23T02:33:19.444Z,18.50
2018-04-23T02:35:47.654Z,20.67
2018-04-23T02:38:15.837Z,21.50
2018-04-23T02:40:44.163Z,17.37
2018-04-23T02:43:12.553Z,17.07
2018-04-23T02:45:40.931Z,17.37
2018-04-23T02:48:09.106Z,18.60
2018-04-23T02:50:37.290Z,17.37
2018-04-23T02:53:05.749Z,17.23
2018-04-23T02:55:34.127Z,18.63
2018-04-23T02:58:02.530Z,16.83
2018-04-23T03:00:30.644Z,17.17
2018-04-23T03:02:58.985Z,17.43
2018-04-23T03:05:27.269Z,16.87
2018-04-23T03:07:55.617Z,19.83
2018-04-23T03:10:24.056Z,22.53
2018-04-23T03:12:52.706Z,23.60
2018-04-23T03:15:20.878Z,23.20
2018-04-23T03:17:49.360Z,24.90
2018-04-23T03:20:17.597Z,26.57
2018-04-23T03:22:45.997Z,24.90
2018-04-23T03:25:14.368Z,24.50
2018-04-23T03:27:42.725Z,22.37
2018-04-23T03:30:10.830Z,30.13
2018-04-23T03:32:38.982Z,26.37
2018-04-23T03:35:07.146Z,29.40
2018-04-23T03:37:35.810Z,29.10
2018-04-23T03:40:03.903Z,30.73
2018-04-23T03:42:32.273Z,24.63
2018-04-23T03:45:00.419Z,28.40
2018-04-23T03:47:28.594Z,26.63
2018-04-23T03:49:56.669Z,26.07
2018-04-23T03:52:24.995Z,30.83
2018-04-23T03:54:53.294Z,25.33
2018-04-23T03:57:21.633Z,24.57
2018-04-23T03:59:50.128Z,22.27
2018-04-23T04:02:18.508Z,22.13
2018-04-23T04:04:46.736Z,25.30
2018-04-23T04:07:14.826Z,22.03
2018-04-23T04:09:43.290Z,22.60
2018-04-23T04:12:23.263Z,25.17
2018-04-23T04:15:03.358Z,20.47
2018-04-23T04:20:46.241Z,19.83
2018-04-23T04:23:14.345Z,23.27
2018-04-23T04:25:42.766Z,22.77
2018-04-23T04:28:11.207Z,18.80
2018-04-23T04:30:39.331Z,19.23
2018-04-23T04:33:07.861Z,21.33
2018-04-23T04:35:36.193Z,19.20
2018-04-23T04:38:04.475Z,23.67
2018-04-23T04:40:33.003Z,21.30
2018-04-23T04:43:01.399Z,17.90
2018-04-23T04:45:31.238Z,17.93
2018-04-23T04:48:00.521Z,18.30
2018-04-23T04:50:31.127Z,18.23
2018-04-23T04:53:02.348Z,17.10
2018-04-23T04:55:31.102Z,16.57
2018-04-23T04:57:59.884Z,14.13
2018-04-23T05:00:28.505Z,17.80
2018-04-23T05:02:56.990Z,13.57
2018-04-23T05:05:26.200Z,18.37
2018-04-23T05:07:55.115Z,15.93
2018-04-23T05:10:23.563Z,14.50
2018-04-23T05:12:52.020Z,15.20
2018-04-23T05:15:21.046Z,16.43
2018-04-23T05:17:50.414Z,15.90
2018-04-23T05:20:19.076Z,14.33
2018-04-23T05:22:47.794Z,16.83
2018-04-23T05:25:16.410Z,17.07
2018-04-23T05:27:45.481Z,18.03
2018-04-23T05:30:14.147Z,19.67
2018-04-23T05:32:42.953Z,18.30
2018-04-23T05:35:11.662Z,20.23
2018-04-23T05:37:40.496Z,18.37
2018-04-23T05:40:09.234Z,17.83
2018-04-23T05:42:38.200Z,19.53
2018-04-23T05:45:06.710Z,21.93
2018-04-23T05:47:35.569Z,21.23
2018-04-23T05:50:04.145Z,21.63
2018-04-23T05:52:33.242Z,18.50
2018-04-23T05:55:02.189Z,22.87
2018-04-23T05:57:30.818Z,20.90
2018-04-23T05:59:59.255Z,20.17
2018-04-23T06:02:27.978Z,19.70
2018-04-23T06:04:57.576Z,25.63
2018-04-23T06:07:26.456Z,22.83
2018-04-23T06:09:55.250Z,21.30
2018-04-23T06:12:23.675Z,21.77
2018-04-23T06:14:52.033Z,19.33
2018-04-23T06:17:20.310Z,25.60
2018-04-23T06:19:48.669Z,23.93
2018-04-23T06:22:17.931Z,24.30
2018-04-23T06:24:46.343Z,23.00
2018-04-23T06:27:14.685Z,29.67
2018-04-23T06:29:43.369Z,31.43
2018-04-23T06:32:12.046Z,27.77
2018-04-23T06:34:41.330Z,32.70
2018-04-23T06:37:09.569Z,34.57
2018-04-23T06:39:37.976Z,38.57
2018-04-23T06:42:06.637Z,32.50
2018-04-23T06:44:35.672Z,32.73
2018-04-23T06:47:04.247Z,32.30
2018-04-23T06:49:32.725Z,33.80
2018-04-23T06:52:01.106Z,34.50
2018-04-23T06:54:29.732Z,37.07
2018-04-23T06:56:58.405Z,34.93
2018-04-23T06:59:26.879Z,32.40
2018-04-23T07:01:55.272Z,30.87
2018-04-23T07:04:23.639Z,37.33
2018-04-23T07:06:51.940Z,29.67
2018-04-23T07:09:20.642Z,29.17
2018-04-23T07:11:48.871Z,30.63
2018-04-23T07:14:17.236Z,27.70
2018-04-23T07:16:46.209Z,32.93
2018-04-23T07:19:14.403Z,29.03
2018-04-23T07:21:42.818Z,29.60
2018-04-23T07:24:11.937Z,31.30
2018-04-23T07:26:40.447Z,29.63
2018-04-23T07:29:09.328Z,35.17
2018-04-23T07:31:38.197Z,35.17
2018-04-23T07:34:06.536Z,28.20
2018-04-23T07:36:35.451Z,31.50
2018-04-23T07:39:04.220Z,29.50
2018-04-23T07:41:32.495Z,35.57
2018-04-23T07:44:01.556Z,29.70
2018-04-23T07:46:30.043Z,32.97
2018-04-23T07:48:58.476Z,29.67
2018-04-23T07:51:26.798Z,29.63
2018-04-23T07:53:55.419Z,27.67
2018-04-23T07:56:23.929Z,28.50
2018-04-23T07:58:52.281Z,35.00
2018-04-23T08:01:20.779Z,31.20
2018-04-23T08:03:49.060Z,30.30
2018-04-23T08:06:17.390Z,28.27
2018-04-23T08:08:46.261Z,27.57
2018-04-23T08:11:14.566Z,25.07
2018-04-23T08:13:42.932Z,30.33
2018-04-23T08:16:11.444Z,26.33
2018-04-23T08:18:39.761Z,28.33
2018-04-23T08:21:08.773Z,26.93
2018-04-23T08:23:37.239Z,26.30
2018-04-23T08:26:05.600Z,25.60
2018-04-23T08:28:34.210Z,27.63
2018-04-23T08:31:02.967Z,22.97
2018-04-23T08:33:32.088Z,31.83
2018-04-23T08:36:00.398Z,24.73
2018-04-23T08:38:28.945Z,22.70
2018-04-23T08:40:57.312Z,24.63
2018-04-23T08:43:25.724Z,22.40
2018-04-23T08:45:54.039Z,22.43
2018-04-23T08:48:22.764Z,23.73
2018-04-23T08:50:51.133Z,18.70
2018-04-23T08:53:19.428Z,24.07
2018-04-23T08:55:47.946Z,23.90
2018-04-23T08:58:16.550Z,19.73
2018-04-23T09:00:44.660Z,23.20
2018-04-23T09:03:12.926Z,21.97
2018-04-23T09:05:41.754Z,23.07
2018-04-23T09:08:10.467Z,19.93
2018-04-23T09:10:38.997Z,22.53
2018-04-23T09:13:07.321Z,20.97
2018-04-23T09:15:35.665Z,18.27
2018-04-23T09:18:04.396Z,18.50
2018-04-23T09:20:33.267Z,20.90
2018-04-23T09:23:01.492Z,21.67
2018-04-23T09:25:29.624Z,25.23
2018-04-23T09:27:57.858Z,18.70
2018-04-23T09:30:26.427Z,18.37
2018-04-23T09:32:54.624Z,19.23
2018-04-23T09:35:23.809Z,15.77
2018-04-23T09:37:51.927Z,14.00
2018-04-23T09:40:20.293Z,13.57
2018-04-23T09:42:48.740Z,11.50
2018-04-23T09:45:17.340Z,12.80
2018-04-23T09:47:45.608Z,16.00
2018-04-23T09:50:14.014Z,12.77
2018-04-23T09:52:42.241Z,15.13
2018-04-23T09:55:10.700Z,14.17
2018-04-23T09:57:38.973Z,14.13
2018-04-23T10:00:07.288Z,13.80
2018-04-23T10:02:35.678Z,12.23
2018-04-23T10:05:04.079Z,14.43
2018-04-23T10:07:32.398Z,12.90
2018-04-23T10:10:01.021Z,14.73
2018-04-23T10:12:29.282Z,11.20
2018-04-23T10:14:57.576Z,12.00
2018-04-23T10:17:26.547Z,10.40
2018-04-23T10:19:54.833Z,10.47
2018-04-23T10:22:23.157Z,10.27
2018-04-23T10:24:51.488Z,17.30
2018-04-23T10:27:19.783Z,10.97
2018-04-23T10:29:48.190Z,13.47
2018-04-23T10:32:16.818Z,10.20
2018-04-23T10:34:45.425Z,9.63
2018-04-23T10:37:14.174Z,8.20
2018-04-23T10:39:42.586Z,10.47
2018-04-23T10:42:10.831Z,11.67
2018-04-23T10:44:38.979Z,9.27
2018-04-23T10:47:07.124Z,12.93
2018-04-23T10:49:35.459Z,10.70
2018-04-23T10:52:03.827Z,10.07
2018-04-23T10:54:32.105Z,11.27
2018-04-23T10:57:00.397Z,10.90
2018-04-23T10:59:28.844Z,11.37
2018-04-23T11:01:57.384Z,10.97
2018-04-23T11:04:25.929Z,8.77
2018-04-23T11:06:54.025Z,6.80
2018-04-23T11:09:22.200Z,7.57
2018-04-23T11:11:50.439Z,8.80
2018-04-23T11:14:18.713Z,8.43
2018-04-23T11:16:46.892Z,7.47
2018-04-23T11:19:15.153Z,11.93
2018-04-23T11:21:43.601Z,8.63
2018-04-23T11:24:12.303Z,10.77
2018-04-23T11:26:40.456Z,7.87
2018-04-23T11:29:08.799Z,9.13
2018-04-23T11:31:36.988Z,6.93
2018-04-23T11:34:05.310Z,10.50
2018-04-23T11:36:33.716Z,6.33
2018-04-23T11:39:01.846Z,9.10
2018-04-23T11:41:29.974Z,6.30
2018-04-23T11:43:58.212Z,8.63
2018-04-23T11:46:26.499Z,7.60
2018-04-23T11:48:54.744Z,11.47
2018-04-23T11:51:23.001Z,7.57
2018-04-23T11:53:51.345Z,6.67
2018-04-23T11:56:19.529Z,5.53
2018-04-23T11:58:47.946Z,6.97
2018-04-23T12:01:16.230Z,7.20
2018-04-23T12:03:44.418Z,7.63
2018-04-23T12:06:12.799Z,7.03
2018-04-23T12:08:41.713Z,9.17
2018-04-23T12:11:09.988Z,8.30
2018-04-23T12:13:38.277Z,7.27
2018-04-23T12:16:06.523Z,7.70
2018-04-23T12:18:34.750Z,11.43
2018-04-23T12:21:03.004Z,8.03
2018-04-23T12:23:31.275Z,8.67
2018-04-23T12:25:59.696Z,7.70
2018-04-23T12:28:27.949Z,10.13
2018-04-23T12:30:56.335Z,8.40
2018-04-23T12:33:26.122Z,6.63
2018-04-23T12:35:54.248Z,5.97
2018-04-23T12:38:22.478Z,7.10
2018-04-23T12:40:50.746Z,6.43
2018-04-23T12:43:19.024Z,8.40
2018-04-23T12:45:47.880Z,8.60
2018-04-23T12:48:16.540Z,4.90
2018-04-23T12:50:44.801Z,4.90
2018-04-23T12:53:13.294Z,6.60
2018-04-23T12:55:41.473Z,8.90
2018-04-23T12:58:09.717Z,8.17
2018-04-23T13:00:38.013Z,5.37
2018-04-23T13:03:06.378Z,6.33
2018-04-23T13:05:34.555Z,5.93
2018-04-23T13:08:02.892Z,5.50
2018-04-23T13:10:31.206Z,7.43
2018-04-23T13:12:59.392Z,8.00
2018-04-23T13:15:27.744Z,4.73
2018-04-23T13:17:56.080Z,11.13
2018-04-23T13:20:24.358Z,8.87
2018-04-23T13:22:52.564Z,9.30
2018-04-23T13:25:20.778Z,16.67
2018-04-23T13:27:49.067Z,7.63
2018-04-23T13:30:17.211Z,7.43
2018-04-23T13:32:45.392Z,8.23
2018-04-23T13:35:13.999Z,6.20
2018-04-23T13:37:42.192Z,6.50
2018-04-23T13:40:10.454Z,6.07
2018-04-23T13:42:39.005Z,5.57
2018-04-23T13:45:07.933Z,7.47
2018-04-23T13:47:36.203Z,7.47
2018-04-23T13:50:04.427Z,5.47
2018-04-23T13:52:32.689Z,11.30
2018-04-23T13:55:00.957Z,7.07
2018-04-23T13:57:29.065Z,11.13
2018-04-23T13:59:58.916Z,6.30
2018-04-23T14:02:27.565Z,8.40
2018-04-23T14:04:56.099Z,6.67
2018-04-23T14:07:24.351Z,7.23
2018-04-23T14:09:52.564Z,8.43
2018-04-23T14:12:20.861Z,5.80
2018-04-23T14:14:49.561Z,7.50
2018-04-23T14:17:18.051Z,8.23
2018-04-23T14:19:46.707Z,5.20
2018-04-23T14:22:15.660Z,9.43
2018-04-23T14:24:44.395Z,8.00
2018-04-23T14:27:12.694Z,7.40
2018-04-23T14:29:41.720Z,11.10
2018-04-23T14:32:10.215Z,9.20
2018-04-23T14:34:38.651Z,9.33
2018-04-23T14:37:07.166Z,6.30
2018-04-23T14:39:35.497Z,9.77
2018-04-23T14:42:03.820Z,7.23
2018-04-23T14:44:32.112Z,8.20
2018-04-23T14:47:00.439Z,5.97
2018-04-23T14:49:28.725Z,6.40
2018-04-23T14:51:57.083Z,5.73
2018-04-23T14:54:25.449Z,7.13
2018-04-23T14:56:53.793Z,6.33
2018-04-23T14:59:22.087Z,7.83
2018-04-23T15:01:50.695Z,6.60
2018-04-23T15:04:18.969Z,5.33
2018-04-23T15:06:47.392Z,7.40
2018-04-23T15:09:16.202Z,5.93
2018-04-23T15:11:44.767Z,7.30
2018-04-23T15:14:13.091Z,7.10
2018-04-23T15:16:41.561Z,7.03
2018-04-23T15:19:09.992Z,4.80
2018-04-23T15:21:38.220Z,4.90
2018-04-23T15:24:06.486Z,8.23
2018-04-23T15:26:35.507Z,7.00
2018-04-23T15:29:04.094Z,6.80
2018-04-23T15:31:32.460Z,6.63
2018-04-23T15:34:00.863Z,6.43
2018-04-23T15:36:29.055Z,8.27
2018-04-23T15:38:59.141Z,6.57
2018-04-23T15:41:27.814Z,6.20
2018-04-23T15:43:56.119Z,5.63
2018-04-23T15:46:24.265Z,6.77
2018-04-23T15:48:52.596Z,8.00
2018-04-23T15:51:21.343Z,5.40
2018-04-23T15:53:50.013Z,6.87
2018-04-23T15:56:19.075Z,8.03
2018-04-23T15:58:47.429Z,9.87
2018-04-23T16:01:15.788Z,10.37
2018-04-23T16:03:44.401Z,6.50
2018-04-23T16:06:12.733Z,5.90
2018-04-23T16:08:42.150Z,6.30
2018-04-23T16:11:11.191Z,7.13
2018-04-23T16:13:39.979Z,7.37
2018-04-23T16:16:08.563Z,7.23
2018-04-23T16:18:36.961Z,7.30
2018-04-23T16:21:05.368Z,6.93
2018-04-23T16:23:34.496Z,7.70
2018-04-23T16:26:03.246Z,6.03
2018-04-23T16:28:31.868Z,8.40
2018-04-23T16:31:00.450Z,6.77
2018-04-23T16:33:28.939Z,5.80
2018-04-23T16:35:57.424Z,6.60
2018-04-23T16:38:26.015Z,6.97
2018-04-23T16:40:54.281Z,5.73
2018-04-23T16:43:22.535Z,8.20
2018-04-23T16:45:51.068Z,5.50
2018-04-23T16:48:19.353Z,6.00
2018-04-23T16:50:47.480Z,8.30
2018-04-23T16:53:15.806Z,6.40
2018-04-23T16:55:43.986Z,6.20
2018-04-23T16:58:12.198Z,4.60
2018-04-23T17:00:40.489Z,5.10
2018-04-23T17:03:09.035Z,7.30
2018-04-23T17:05:37.509Z,4.73
2018-04-23T17:08:05.737Z,7.57
2018-04-23T17:10:34.055Z,5.17
2018-04-23T17:13:02.190Z,4.60
2018-04-23T17:15:30.455Z,6.63
2018-04-23T17:17:59.057Z,5.93
2018-04-23T17:20:27.400Z,4.60
2018-04-23T17:22:55.626Z,8.60
2018-04-23T17:25:24.001Z,7.70
2018-04-23T17:27:52.200Z,4.83
2018-04-23T17:30:20.559Z,6.83
2018-04-23T17:32:48.779Z,7.57
2018-04-23T17:35:17.392Z,7.30
2018-04-23T17:37:45.558Z,7.93
2018-04-23T17:40:13.807Z,10.10
2018-04-23T17:42:42.204Z,7.20
2018-04-23T17:45:10.499Z,7.93
2018-04-23T17:47:38.870Z,4.63
2018-04-23T17:50:07.342Z,4.13
2018-04-23T17:52:35.615Z,5.10
2018-04-23T17:55:04.021Z,5.57
2018-04-23T17:57:32.180Z,5.40
2018-04-23T18:00:00.518Z,4.50
2018-04-23T18:02:28.729Z,4.40
2018-04-23T18:04:57.387Z,5.77
2018-04-23T18:07:26.226Z,6.97
2018-04-23T18:09:54.434Z,7.07
2018-04-23T18:12:22.574Z,5.00
2018-04-23T18:14:50.680Z,3.93
2018-04-23T18:17:18.976Z,6.43
2018-04-23T18:19:47.081Z,5.90
2018-04-23T18:22:15.628Z,4.27
2018-04-23T18:24:43.951Z,3.50
2018-04-23T18:27:12.611Z,4.63
2018-04-23T18:29:40.791Z,4.70
2018-04-23T18:32:08.942Z,3.50
2018-04-23T18:34:37.237Z,3.27
2018-04-23T18:37:05.336Z,4.87
2018-04-23T18:39:33.397Z,4.20
2018-04-23T18:42:01.479Z,5.20
2018-04-23T18:44:29.805Z,3.40
2018-04-23T18:46:57.912Z,3.53
2018-04-23T18:49:26.197Z,4.43
2018-04-23T18:51:54.282Z,4.50
2018-04-23T18:54:22.362Z,4.17
2018-04-23T18:56:50.460Z,6.70
2018-04-23T18:59:18.562Z,6.63
2018-04-23T19:01:46.651Z,6.97
2018-04-23T19:04:15.034Z,3.10
2018-04-23T19:06:43.254Z,3.17
2018-04-23T19:09:11.397Z,4.20
2018-04-23T19:11:39.604Z,3.67
2018-04-23T19:14:07.806Z,3.67
2018-04-23T19:16:35.889Z,4.77
2018-04-23T19:19:04.002Z,4.77
2018-04-23T19:21:32.106Z,3.23
2018-04-23T19:24:00.317Z,3.10
2018-04-23T19:26:28.411Z,4.93
2018-04-23T19:28:56.610Z,3.50
2018-04-23T19:31:24.720Z,5.13
2018-04-23T19:33:52.864Z,3.73
2018-04-23T19:36:20.965Z,6.67
2018-04-23T19:38:49.079Z,5.20
2018-04-23T19:41:17.192Z,3.83
2018-04-23T19:43:45.425Z,4.73
2018-04-23T19:46:13.687Z,6.40
2018-04-23T19:48:41.829Z,5.67
2018-04-23T19:51:10.202Z,4.37
2018-04-23T19:53:38.655Z,4.20
2018-04-23T19:56:06.850Z,3.40
2018-04-23T19:58:34.992Z,4.03
2018-04-23T20:01:03.374Z,5.20
2018-04-23T20:03:31.483Z,4.73
2018-04-23T20:05:59.625Z,4.50
2018-04-23T20:08:27.870Z,3.20
2018-04-23T20:10:56.022Z,4.53
2018-04-23T20:13:24.141Z,3.67
2018-04-23T20:15:52.271Z,5.33
2018-04-23T20:18:20.557Z,6.93
2018-04-23T20:20:48.718Z,3.50
2018-04-23T20:23:17.063Z,4.67
2018-04-23T20:25:45.192Z,3.53
2018-04-23T20:28:13.344Z,2.83
2018-04-23T20:30:41.510Z,3.53
2018-04-23T20:33:09.648Z,3.47
2018-04-23T20:35:37.809Z,5.67
2018-04-23T20:38:05.966Z,8.13
2018-04-23T20:40:34.084Z,4.80
2018-04-23T20:43:02.487Z,6.30
2018-04-23T20:45:31.153Z,7.17
2018-04-23T20:47:59.232Z,3.17
2018-04-23T20:50:27.521Z,3.33
2018-04-23T20:52:55.689Z,2.43
2018-04-23T20:55:23.806Z,4.50
2018-04-23T20:57:51.884Z,4.83
2018-04-23T21:00:20.179Z,8.10
2018-04-23T21:02:49.560Z,3.73
2018-04-23T21:05:17.932Z,3.00
2018-04-23T21:07:46.230Z,3.33
2018-04-23T21:10:14.541Z,5.67
2018-04-23T21:12:42.679Z,4.83
2018-04-23T21:15:10.788Z,4.87
2018-04-23T21:17:38.896Z,6.37
2018-04-23T21:20:06.973Z,4.90
2018-04-23T21:22:35.195Z,5.20
2018-04-23T21:25:03.337Z,5.27
2018-04-23T21:27:31.737Z,2.57
2018-04-23T21:30:00.121Z,8.20
2018-04-23T21:32:28.276Z,6.53
2018-04-23T21:34:56.388Z,4.30
2018-04-23T21:37:24.637Z,4.50
2018-04-23T21:39:53.019Z,5.87
2018-04-23T21:42:21.150Z,6.50
2018-04-23T21:44:49.230Z,5.43
2018-04-23T21:47:17.548Z,5.20
2018-04-23T21:49:45.988Z,5.27
2018-04-23T21:52:14.280Z,5.47
2018-04-23T21:54:42.677Z,2.53
2018-04-23T21:57:10.805Z,4.40
2018-04-23T21:59:39.098Z,6.57
2018-04-23T22:02:07.387Z,4.40
2018-04-23T22:04:35.571Z,5.93
2018-04-23T22:07:03.708Z,2.67
2018-04-23T22:09:31.937Z,4.67
2018-04-23T22:12:00.014Z,6.90
2018-04-23T22:14:28.150Z,4.37
2018-04-23T22:16:56.273Z,3.90
2018-04-23T22:19:24.637Z,4.63
2018-04-23T22:21:52.719Z,2.83
2018-04-23T22:24:20.862Z,5.17
2018-04-23T22:26:49.046Z,3.00
2018-04-23T22:29:17.121Z,4.67
2018-04-23T22:31:45.483Z,3.33
2018-04-23T22:34:13.567Z,4.73
2018-04-23T22:36:41.670Z,3.70
2018-04-23T22:39:09.775Z,2.83
2018-04-23T22:41:37.902Z,4.27
2018-04-23T22:44:06.218Z,5.37
2018-04-23T22:46:34.515Z,3.90
2018-04-23T22:49:02.683Z,9.20
2018-04-23T22:51:30.804Z,5.17
2018-04-23T22:53:59.142Z,4.00
2018-04-23T22:56:27.403Z,4.07
2018-04-23T22:58:55.564Z,6.77
2018-04-23T23:01:23.721Z,3.70
2018-04-23T23:03:51.799Z,4.17
2018-04-23T23:06:19.967Z,3.00
2018-04-23T23:08:48.198Z,4.77
2018-04-23T23:11:16.312Z,4.60
2018-04-23T23:13:44.384Z,3.83
2018-04-23T23:16:12.644Z,4.67
2018-04-23T23:18:40.764Z,4.30
2018-04-23T23:21:09.019Z,4.70
2018-04-23T23:23:37.181Z,6.20
2018-04-23T23:26:05.392Z,5.47
2018-04-23T23:28:33.681Z,5.93
2018-04-23T23:31:01.774Z,3.97
2018-04-23T23:33:30.123Z,7.30
2018-04-23T23:35:58.521Z,4.27
2018-04-23T23:38:26.782Z,3.73
2018-04-23T23:40:54.895Z,4.67
2018-04-23T23:43:22.978Z,7.90
2018-04-23T23:45:51.079Z,6.53
2018-04-23T23:48:19.426Z,6.97
2018-04-23T23:50:47.559Z,4.17
2018-04-23T23:53:15.795Z,3.57
2018-04-23T23:55:44.285Z,4.30
2018-04-23T23:58:12.399Z,3.70
